createdAt,value
2023-02-08T00:00:54.600Z,91.20
2023-02-08T00:03:21.613Z,91.40
2023-02-08T00:05:48.569Z,91.20
2023-02-08T00:08:16.152Z,91.40
2023-02-08T00:10:43.984Z,91.50
2023-02-08T00:13:10.882Z,91.60
2023-02-08T00:15:42.448Z,91.60
2023-02-08T00:18:09.722Z,91.60
2023-02-08T00:20:40.097Z,91.60
2023-02-08T00:23:07.174Z,91.60
2023-02-08T00:25:34.200Z,91.60
2023-02-08T00:28:02.744Z,91.50
2023-02-08T00:30:30.934Z,91.60
2023-02-08T00:32:58.182Z,91.60
2023-02-08T00:35:24.907Z,91.60
2023-02-08T00:37:51.661Z,91.60
2023-02-08T00:40:18.531Z,91.50
2023-02-08T00:42:45.727Z,91.50
2023-02-08T00:45:12.597Z,91.40
2023-02-08T00:47:39.413Z,91.50
2023-02-08T00:50:07.049Z,91.60
2023-02-08T00:52:33.915Z,91.50
2023-02-08T00:55:00.790Z,91.60
2023-02-08T00:57:27.721Z,91.30
2023-02-08T00:59:54.549Z,91.30
2023-02-08T01:02:21.389Z,91.40
2023-02-08T01:04:48.422Z,91.30
2023-02-08T01:07:15.245Z,91.30
2023-02-08T01:09:42.083Z,91.20
2023-02-08T01:12:09.051Z,91.20
2023-02-08T01:14:38.580Z,91.30
2023-02-08T01:17:05.332Z,91.20
2023-02-08T01:19:32.177Z,91.20
2023-02-08T01:21:58.952Z,91.20
2023-02-08T01:24:25.740Z,91.10
2023-02-08T01:26:52.539Z,91.00
2023-02-08T01:29:19.302Z,91.20
2023-02-08T01:31:46.571Z,91.20
2023-02-08T01:34:13.954Z,91.10
2023-02-08T01:36:40.939Z,91.20
2023-02-08T01:39:09.994Z,91.30
2023-02-08T01:41:39.942Z,91.50
2023-02-08T01:44:48.390Z,91.40
2023-02-08T01:47:15.743Z,91.40
2023-02-08T01:49:42.677Z,91.40
2023-02-08T01:52:20.690Z,91.60
2023-02-08T01:55:13.635Z,91.60
2023-02-08T01:57:41.320Z,91.50
2023-02-08T02:00:10.804Z,91.50
2023-02-08T02:02:38.679Z,91.50
2023-02-08T02:05:06.236Z,91.60
2023-02-08T02:07:33.035Z,91.60
2023-02-08T02:10:07.677Z,91.50
2023-02-08T02:12:37.663Z,91.50
2023-02-08T02:15:05.847Z,92.00
2023-02-08T02:17:32.891Z,92.30
2023-02-08T02:20:05.394Z,92.30
2023-02-08T02:22:32.186Z,92.20
2023-02-08T02:25:06.870Z,92.00
2023-02-08T02:27:51.649Z,91.90
2023-02-08T02:30:52.066Z,91.90
2023-02-08T02:33:27.610Z,92.00
2023-02-08T02:36:06.343Z,91.90
2023-02-08T02:38:36.120Z,92.00
2023-02-08T02:41:09.041Z,92.20
2023-02-08T02:43:41.538Z,92.00
2023-02-08T02:46:26.014Z,92.00
2023-02-08T02:49:08.107Z,92.10
2023-02-08T02:51:44.508Z,92.30
2023-02-08T02:54:43.433Z,92.10
2023-02-08T02:57:14.784Z,92.10
2023-02-08T02:59:43.000Z,92.10
2023-02-08T03:02:10.191Z,92.20
2023-02-08T03:04:39.968Z,92.30
2023-02-08T03:07:18.740Z,92.20
2023-02-08T03:10:06.751Z,92.30
2023-02-08T03:12:48.997Z,92.50
2023-02-08T03:15:30.798Z,92.50
2023-02-08T03:18:27.041Z,92.40
2023-02-08T03:21:24.595Z,92.20
2023-02-08T03:23:59.969Z,92.20
2023-02-08T03:26:38.671Z,92.20
2023-02-08T03:29:27.125Z,92.40
2023-02-08T03:31:59.358Z,92.70
2023-02-08T03:34:48.033Z,93.10
2023-02-08T03:37:22.457Z,92.90
2023-02-08T03:39:52.456Z,93.30
2023-02-08T03:42:24.177Z,93.20
2023-02-08T03:45:15.440Z,93.20
2023-02-08T03:47:45.113Z,93.10
2023-02-08T03:50:17.288Z,93.10
2023-02-08T03:52:47.877Z,93.10
2023-02-08T03:55:27.468Z,93.20
2023-02-08T03:58:15.982Z,93.40
2023-02-08T04:00:48.156Z,93.40
2023-02-08T04:03:22.646Z,93.30
2023-02-08T04:05:50.606Z,93.20
2023-02-08T04:08:17.553Z,93.00
2023-02-08T04:10:44.970Z,93.00
2023-02-08T04:13:11.662Z,93.10
2023-02-08T04:15:38.491Z,93.10
2023-02-08T04:18:05.840Z,93.30
2023-02-08T04:20:32.672Z,93.50
2023-02-08T04:22:59.393Z,93.50
2023-02-08T04:25:26.889Z,93.30
2023-02-08T04:27:53.775Z,93.30
2023-02-08T04:30:20.672Z,93.10
2023-02-08T04:32:47.479Z,93.10
2023-02-08T04:35:14.212Z,93.00
2023-02-08T04:37:40.961Z,93.10
2023-02-08T04:40:08.057Z,93.10
2023-02-08T04:42:35.150Z,93.00
2023-02-08T04:45:01.892Z,93.00
2023-02-08T04:47:28.647Z,93.20
2023-02-08T04:49:55.407Z,93.30
2023-02-08T04:52:22.147Z,93.50
2023-02-08T04:54:48.973Z,93.30
2023-02-08T04:57:15.892Z,93.40
2023-02-08T04:59:42.883Z,93.30
2023-02-08T05:02:09.966Z,93.30
2023-02-08T05:04:36.745Z,93.40
2023-02-08T05:07:03.687Z,93.50
2023-02-08T05:09:30.515Z,93.50
2023-02-08T05:11:57.257Z,93.40
2023-02-08T05:14:24.031Z,93.40
2023-02-08T05:16:50.802Z,93.40
2023-02-08T05:19:17.537Z,93.40
2023-02-08T05:21:44.316Z,93.50
2023-02-08T05:24:12.421Z,93.70
2023-02-08T05:26:40.264Z,93.80
2023-02-08T05:29:07.023Z,93.70
2023-02-08T05:31:33.921Z,93.60
2023-02-08T05:34:00.721Z,93.70
2023-02-08T05:36:27.585Z,93.80
2023-02-08T05:38:54.354Z,93.90
2023-02-08T05:41:21.453Z,94.00
2023-02-08T05:43:48.185Z,94.00
2023-02-08T05:46:15.135Z,93.90
2023-02-08T05:48:42.035Z,94.00
2023-02-08T05:51:09.078Z,93.90
2023-02-08T05:53:36.798Z,93.80
2023-02-08T05:56:03.821Z,93.70
2023-02-08T05:58:30.838Z,93.90
2023-02-08T06:00:57.601Z,93.70
2023-02-08T06:03:24.469Z,93.60
2023-02-08T06:05:51.269Z,93.60
2023-02-08T06:08:18.158Z,93.80
2023-02-08T06:10:48.094Z,94.00
2023-02-08T06:13:15.956Z,93.80
2023-02-08T06:15:42.895Z,93.80
2023-02-08T06:18:09.711Z,93.80
2023-02-08T06:20:36.492Z,94.10
2023-02-08T06:23:03.467Z,94.00
2023-02-08T06:25:30.534Z,94.00
2023-02-08T06:27:57.655Z,94.10
2023-02-08T06:30:25.164Z,94.10
2023-02-08T06:32:52.424Z,94.30
2023-02-08T06:35:19.301Z,94.40
2023-02-08T06:37:46.120Z,94.30
2023-02-08T06:40:12.885Z,94.30
2023-02-08T06:42:39.720Z,94.30
2023-02-08T06:45:10.242Z,94.60
2023-02-08T06:47:38.441Z,94.50
2023-02-08T06:50:06.561Z,94.60
2023-02-08T06:52:33.453Z,94.50
2023-02-08T06:55:00.226Z,94.70
2023-02-08T06:57:27.082Z,94.60
2023-02-08T06:59:53.850Z,94.50
2023-02-08T07:02:21.523Z,94.60
2023-02-08T07:04:49.016Z,94.70
2023-02-08T07:07:17.914Z,94.80
2023-02-08T07:09:44.796Z,94.80
2023-02-08T07:12:12.076Z,94.80
2023-02-08T07:14:43.509Z,94.90
2023-02-08T07:17:11.562Z,95.10
2023-02-08T07:19:38.481Z,95.20
2023-02-08T07:22:08.381Z,95.30
2023-02-08T07:24:39.759Z,95.30
2023-02-08T07:27:08.632Z,95.40
2023-02-08T07:29:35.801Z,95.50
2023-02-08T07:32:04.667Z,95.60
2023-02-08T07:34:34.243Z,95.60
2023-02-08T07:37:01.134Z,95.80
2023-02-08T07:39:28.272Z,95.70
2023-02-08T07:41:55.035Z,95.80
2023-02-08T07:44:21.844Z,96.00
2023-02-08T07:46:48.605Z,96.10
2023-02-08T07:49:15.374Z,96.10
2023-02-08T07:51:42.221Z,95.90
2023-02-08T07:54:09.011Z,95.90
2023-02-08T07:56:35.851Z,95.80
2023-02-08T07:59:02.714Z,95.90
2023-02-08T08:01:29.617Z,96.00
2023-02-08T08:03:56.508Z,96.00
2023-02-08T08:06:23.698Z,96.00
2023-02-08T08:08:51.231Z,96.20
2023-02-08T08:11:19.609Z,96.30
2023-02-08T08:13:46.544Z,96.20
2023-02-08T08:16:13.460Z,96.20
2023-02-08T08:18:40.281Z,96.20
2023-02-08T08:21:07.905Z,96.20
2023-02-08T08:23:36.304Z,96.20
2023-02-08T08:26:13.763Z,96.50
2023-02-08T08:28:41.802Z,96.50
2023-02-08T08:31:16.843Z,96.30
2023-02-08T08:33:44.169Z,96.00
2023-02-08T08:36:11.103Z,95.80
2023-02-08T08:38:41.842Z,95.40
2023-02-08T08:41:15.340Z,95.20
2023-02-08T08:43:42.193Z,94.80
2023-02-08T08:46:09.941Z,94.30
2023-02-08T08:48:38.826Z,94.10
2023-02-08T08:51:06.377Z,93.80
2023-02-08T08:53:33.547Z,93.60
2023-02-08T08:56:00.344Z,93.30
2023-02-08T08:58:27.198Z,92.90
2023-02-08T09:00:56.032Z,92.20
2023-02-08T09:03:25.825Z,92.00
2023-02-08T09:05:52.933Z,91.50
2023-02-08T09:08:28.045Z,91.00
2023-02-08T09:11:16.159Z,90.40
2023-02-08T09:13:43.845Z,90.30
2023-02-08T09:16:16.659Z,90.10
2023-02-08T09:18:44.760Z,87.60
2023-02-08T09:21:13.845Z,87.00
2023-02-08T09:23:40.985Z,86.40
2023-02-08T09:26:10.167Z,85.40
2023-02-08T09:28:36.960Z,85.20
2023-02-08T09:31:18.381Z,84.60
2023-02-08T09:33:45.217Z,82.20
2023-02-08T09:36:12.059Z,82.30
2023-02-08T09:38:39.482Z,81.20
2023-02-08T09:41:11.792Z,81.70
2023-02-08T09:43:59.712Z,80.70
2023-02-08T09:46:30.079Z,81.40
2023-02-08T09:49:00.825Z,81.20
2023-02-08T09:51:34.079Z,80.90
2023-02-08T09:54:29.431Z,80.10
2023-02-08T09:56:58.345Z,78.50
2023-02-08T09:59:28.607Z,77.40
2023-02-08T10:02:02.358Z,77.80
2023-02-08T10:05:05.758Z,76.90
2023-02-08T10:07:34.594Z,76.20
2023-02-08T10:10:08.169Z,75.80
2023-02-08T10:12:48.429Z,74.40
2023-02-08T10:15:40.863Z,73.90
2023-02-08T10:18:29.196Z,74.10
2023-02-08T10:21:20.655Z,73.10
2023-02-08T10:23:50.403Z,72.90
2023-02-08T10:26:29.317Z,71.70
2023-02-08T10:29:26.477Z,70.20
2023-02-08T10:32:39.617Z,69.10
2023-02-08T10:35:14.812Z,69.00
2023-02-08T10:37:44.130Z,68.70
2023-02-08T10:40:35.681Z,68.40
2023-02-08T10:43:06.344Z,67.90
2023-02-08T10:45:43.900Z,67.60
2023-02-08T10:48:21.992Z,67.50
2023-02-08T10:50:48.784Z,67.40
2023-02-08T10:53:18.696Z,66.90
2023-02-08T10:55:48.102Z,67.00
2023-02-08T10:58:24.454Z,67.10
2023-02-08T11:00:54.340Z,65.90
2023-02-08T11:03:22.992Z,65.40
2023-02-08T11:05:50.294Z,65.30
2023-02-08T11:08:19.841Z,65.20
2023-02-08T11:10:59.986Z,65.40
2023-02-08T11:13:53.560Z,65.10
2023-02-08T11:16:23.996Z,62.60
2023-02-08T11:18:56.878Z,60.50
2023-02-08T11:21:49.334Z,60.20
2023-02-08T11:24:16.078Z,61.10
2023-02-08T11:26:43.651Z,61.20
2023-02-08T11:29:16.444Z,60.70
2023-02-08T11:31:55.135Z,59.60
2023-02-08T11:34:32.861Z,60.00
2023-02-08T11:37:23.346Z,59.40
2023-02-08T11:39:54.344Z,59.80
2023-02-08T11:42:25.713Z,59.40
2023-02-08T11:44:54.053Z,58.60
2023-02-08T11:47:33.862Z,59.10
2023-02-08T11:50:03.940Z,58.50
2023-02-08T11:52:39.431Z,58.00
2023-02-08T11:55:27.062Z,58.00
2023-02-08T11:58:24.344Z,58.40
2023-02-08T12:01:18.283Z,57.50
2023-02-08T12:03:48.203Z,56.90
2023-02-08T12:06:30.155Z,55.30
2023-02-08T12:09:07.521Z,56.10
2023-02-08T12:11:37.477Z,55.40
2023-02-08T12:14:10.033Z,55.70
2023-02-08T12:17:16.299Z,55.40
2023-02-08T12:19:57.833Z,56.80
2023-02-08T12:22:29.752Z,55.30
2023-02-08T12:25:08.832Z,55.70
2023-02-08T12:27:47.625Z,56.10
2023-02-08T12:30:34.523Z,55.90
2023-02-08T12:33:33.650Z,56.20
2023-02-08T12:36:17.170Z,55.70
2023-02-08T12:39:30.576Z,55.30
2023-02-08T12:42:24.278Z,55.20
2023-02-08T12:45:00.180Z,54.70
2023-02-08T12:48:02.969Z,54.20
2023-02-08T12:50:43.897Z,53.80
2023-02-08T12:53:30.865Z,52.60
2023-02-08T12:56:07.906Z,52.80
2023-02-08T12:58:59.070Z,52.00
2023-02-08T13:01:46.620Z,52.00
2023-02-08T13:04:13.330Z,52.20
2023-02-08T13:06:42.848Z,51.70
2023-02-08T13:09:15.568Z,51.80
2023-02-08T13:11:59.348Z,51.50
2023-02-08T13:14:34.347Z,51.30
2023-02-08T13:17:35.241Z,51.90
2023-02-08T13:20:23.192Z,52.10
2023-02-08T13:22:52.925Z,51.80
2023-02-08T13:25:36.749Z,51.60
2023-02-08T13:28:06.166Z,52.10
2023-02-08T13:30:39.589Z,51.50
2023-02-08T13:33:24.096Z,51.60
2023-02-08T13:35:53.099Z,50.80
2023-02-08T13:38:25.882Z,50.70
2023-02-08T13:41:08.178Z,51.00
2023-02-08T13:43:40.582Z,51.30
2023-02-08T13:46:08.070Z,50.80
2023-02-08T13:48:48.001Z,49.90
2023-02-08T13:51:32.759Z,50.60
2023-02-08T13:54:02.266Z,50.70
2023-02-08T13:56:41.319Z,51.00
2023-02-08T13:59:27.036Z,50.90
2023-02-08T14:02:12.195Z,50.20
2023-02-08T14:04:43.947Z,49.60
2023-02-08T14:07:39.347Z,49.90
2023-02-08T14:10:32.002Z,50.40
2023-02-08T14:12:58.818Z,50.90
2023-02-08T14:15:28.855Z,49.90
2023-02-08T14:17:59.489Z,50.40
2023-02-08T14:20:40.095Z,50.70
2023-02-08T14:23:27.976Z,50.90
2023-02-08T14:25:57.478Z,50.20
2023-02-08T14:28:26.777Z,50.50
2023-02-08T14:30:56.107Z,52.10
2023-02-08T14:33:35.923Z,52.80
2023-02-08T14:36:21.283Z,53.40
2023-02-08T14:38:52.761Z,54.20
2023-02-08T14:41:49.287Z,54.60
2023-02-08T14:44:39.071Z,55.20
2023-02-08T14:47:11.832Z,54.50
2023-02-08T14:49:42.913Z,55.60
2023-02-08T14:52:18.595Z,56.70
2023-02-08T14:54:53.822Z,56.30
2023-02-08T14:57:28.450Z,56.50
2023-02-08T15:00:19.110Z,56.90
2023-02-08T15:02:47.063Z,57.70
2023-02-08T15:05:24.391Z,57.50
2023-02-08T15:08:01.994Z,57.70
2023-02-08T15:10:30.535Z,58.10
2023-02-08T15:13:00.803Z,58.50
2023-02-08T15:15:42.786Z,58.20
2023-02-08T15:18:19.968Z,58.90
2023-02-08T15:20:55.934Z,58.70
2023-02-08T15:23:24.306Z,58.90
2023-02-08T15:26:00.126Z,59.30
2023-02-08T15:28:29.633Z,59.60
2023-02-08T15:31:06.280Z,59.20
2023-02-08T15:33:33.865Z,59.70
2023-02-08T15:36:06.171Z,60.10
2023-02-08T15:38:35.988Z,59.90
2023-02-08T15:41:10.362Z,60.00
2023-02-08T15:43:39.065Z,60.50
2023-02-08T15:46:16.702Z,60.40
2023-02-08T15:48:46.148Z,60.80
2023-02-08T15:51:14.740Z,60.80
2023-02-08T15:53:43.948Z,60.80
2023-02-08T15:56:21.447Z,60.90
2023-02-08T15:58:58.090Z,61.10
2023-02-08T16:01:25.462Z,60.70
2023-02-08T16:03:58.329Z,60.50
2023-02-08T16:06:28.023Z,60.10
2023-02-08T16:08:58.878Z,60.80
2023-02-08T16:11:29.016Z,61.10
2023-02-08T16:13:58.419Z,61.80
2023-02-08T16:16:38.069Z,61.80
2023-02-08T16:19:18.949Z,62.70
2023-02-08T16:21:46.557Z,62.70
2023-02-08T16:24:13.261Z,62.90
2023-02-08T16:26:53.760Z,63.10
2023-02-08T16:29:37.760Z,63.10
2023-02-08T16:32:24.828Z,63.40
2023-02-08T16:34:51.654Z,63.80
2023-02-08T16:37:30.493Z,64.40
2023-02-08T16:39:57.226Z,64.90
2023-02-08T16:42:30.213Z,65.80
2023-02-08T16:45:08.173Z,66.10
2023-02-08T16:48:00.148Z,66.60
2023-02-08T16:50:33.766Z,66.60
2023-02-08T16:53:03.050Z,66.30
2023-02-08T16:55:36.189Z,66.60
2023-02-08T16:58:03.042Z,67.10
2023-02-08T17:00:35.006Z,67.40
2023-02-08T17:03:02.450Z,68.20
2023-02-08T17:05:32.251Z,68.70
2023-02-08T17:07:59.544Z,68.30
2023-02-08T17:10:32.458Z,68.60
2023-02-08T17:13:18.746Z,68.60
2023-02-08T17:15:49.392Z,69.40
2023-02-08T17:18:16.328Z,69.80
2023-02-08T17:20:43.579Z,69.80
2023-02-08T17:23:10.761Z,70.00
2023-02-08T17:25:37.849Z,70.40
2023-02-08T17:28:08.630Z,70.80
2023-02-08T17:30:38.788Z,71.50
2023-02-08T17:33:10.217Z,71.70
2023-02-08T17:35:38.165Z,72.00
2023-02-08T17:38:05.769Z,71.60
2023-02-08T17:40:35.004Z,72.50
2023-02-08T17:43:03.093Z,72.30
2023-02-08T17:45:30.331Z,72.60
2023-02-08T17:48:01.249Z,72.80
2023-02-08T17:50:28.133Z,73.00
2023-02-08T17:52:55.707Z,73.10
2023-02-08T17:55:22.813Z,73.20
2023-02-08T17:57:49.781Z,72.90
2023-02-08T18:00:20.786Z,72.50
2023-02-08T18:02:53.240Z,72.90
2023-02-08T18:05:23.260Z,72.70
2023-02-08T18:07:51.855Z,71.70
2023-02-08T18:10:19.062Z,71.90
2023-02-08T18:12:46.238Z,71.80
2023-02-08T18:15:19.977Z,71.50
2023-02-08T18:17:47.420Z,71.40
2023-02-08T18:20:15.125Z,71.50
2023-02-08T18:22:43.449Z,72.10
2023-02-08T18:25:11.288Z,71.80
2023-02-08T18:27:38.335Z,72.60
2023-02-08T18:30:05.856Z,72.70
2023-02-08T18:32:32.795Z,73.10
2023-02-08T18:35:01.770Z,72.10
2023-02-08T18:37:30.589Z,71.90
2023-02-08T18:39:57.909Z,71.00
2023-02-08T18:42:24.721Z,90.70
2023-02-08T18:44:51.603Z,95.40
2023-02-08T18:47:18.440Z,90.30
2023-02-08T18:49:45.422Z,85.90
2023-02-08T18:52:15.773Z,76.90
2023-02-08T18:54:42.694Z,75.00
2023-02-08T18:57:12.678Z,74.30
2023-02-08T18:59:39.566Z,74.40
2023-02-08T19:02:07.874Z,74.00
2023-02-08T19:04:39.059Z,73.60
2023-02-08T19:07:06.836Z,73.70
2023-02-08T19:09:38.658Z,73.50
2023-02-08T19:12:07.613Z,73.80
2023-02-08T19:14:35.103Z,73.90
2023-02-08T19:17:02.528Z,73.90
2023-02-08T19:19:29.583Z,73.70
2023-02-08T19:21:56.458Z,74.30
2023-02-08T19:24:23.306Z,74.60
2023-02-08T19:26:50.252Z,74.60
2023-02-08T19:29:21.968Z,74.90
2023-02-08T19:31:50.460Z,74.90
2023-02-08T19:34:18.506Z,75.20
2023-02-08T19:36:51.901Z,75.70
2023-02-08T19:39:24.350Z,74.60
2023-02-08T19:41:52.921Z,74.90
2023-02-08T19:44:20.974Z,74.70
2023-02-08T19:46:55.232Z,74.70
2023-02-08T19:49:25.920Z,74.80
2023-02-08T19:51:52.981Z,74.90
2023-02-08T19:54:20.732Z,75.00
2023-02-08T19:56:50.281Z,75.50
2023-02-08T19:59:25.860Z,75.30
2023-02-08T20:01:53.968Z,75.30
2023-02-08T20:04:21.643Z,75.50
2023-02-08T20:06:52.146Z,75.70
2023-02-08T20:09:20.093Z,76.20
2023-02-08T20:12:02.286Z,76.30
2023-02-08T20:14:32.910Z,77.20
2023-02-08T20:17:01.082Z,77.10
2023-02-08T20:19:28.387Z,77.30
2023-02-08T20:21:55.318Z,77.90
2023-02-08T20:24:22.346Z,78.00
2023-02-08T20:26:50.544Z,78.10
2023-02-08T20:29:18.102Z,77.50
2023-02-08T20:31:47.964Z,77.70
2023-02-08T20:34:16.938Z,77.80
2023-02-08T20:37:05.278Z,77.70
2023-02-08T20:39:36.443Z,78.40
2023-02-08T20:42:03.545Z,78.50
2023-02-08T20:44:31.828Z,78.30
2023-02-08T20:46:58.802Z,78.30
2023-02-08T20:49:26.916Z,78.10
2023-02-08T20:51:54.641Z,78.60
2023-02-08T20:54:28.057Z,78.80
2023-02-08T20:56:55.195Z,78.70
2023-02-08T20:59:23.613Z,78.80
2023-02-08T21:01:50.644Z,79.00
2023-02-08T21:04:19.770Z,79.40
2023-02-08T21:06:46.579Z,79.60
2023-02-08T21:09:15.360Z,79.70
2023-02-08T21:11:42.541Z,79.60
2023-02-08T21:14:13.618Z,79.70
2023-02-08T21:16:40.518Z,80.20
2023-02-08T21:19:07.506Z,79.90
2023-02-08T21:21:34.354Z,81.10
2023-02-08T21:24:01.246Z,80.40
2023-02-08T21:26:28.352Z,80.60
2023-02-08T21:28:56.604Z,80.90
2023-02-08T21:31:25.046Z,81.00
2023-02-08T21:33:52.514Z,81.10
2023-02-08T21:36:22.683Z,81.30
2023-02-08T21:38:49.574Z,81.40
2023-02-08T21:41:20.437Z,82.30
2023-02-08T21:43:47.687Z,81.60
2023-02-08T21:46:15.034Z,81.70
2023-02-08T21:49:00.674Z,82.40
2023-02-08T21:51:46.350Z,82.20
2023-02-08T21:54:37.691Z,82.70
2023-02-08T21:57:06.550Z,83.00
2023-02-08T21:59:36.771Z,82.80
2023-02-08T22:02:10.853Z,82.70
2023-02-08T22:04:37.700Z,83.30
2023-02-08T22:07:04.921Z,83.00
2023-02-08T22:09:32.068Z,82.70
2023-02-08T22:11:58.964Z,82.60
2023-02-08T22:14:26.066Z,83.10
2023-02-08T22:16:52.971Z,83.00
2023-02-08T22:19:19.884Z,83.00
2023-02-08T22:21:46.684Z,83.00
2023-02-08T22:24:13.464Z,83.00
2023-02-08T22:26:42.661Z,83.10
2023-02-08T22:29:09.894Z,83.90
2023-02-08T22:31:37.017Z,83.90
2023-02-08T22:34:04.594Z,84.10
2023-02-08T22:36:31.549Z,83.90
2023-02-08T22:38:58.405Z,83.90
2023-02-08T22:41:25.206Z,84.40
2023-02-08T22:43:51.955Z,84.40
2023-02-08T22:46:18.706Z,84.80
2023-02-08T22:48:45.464Z,84.70
2023-02-08T22:51:18.262Z,84.50
2023-02-08T22:53:45.244Z,84.40
2023-02-08T22:56:15.077Z,84.40
2023-02-08T22:58:41.990Z,84.60
2023-02-08T23:01:13.807Z,84.90
2023-02-08T23:03:40.603Z,85.20
2023-02-08T23:06:10.339Z,84.90
2023-02-08T23:08:37.318Z,85.20
2023-02-08T23:11:05.662Z,85.70
2023-02-08T23:13:34.355Z,85.40
2023-02-08T23:16:01.258Z,85.50
2023-02-08T23:18:28.060Z,85.70
2023-02-08T23:20:54.891Z,85.90
2023-02-08T23:23:22.384Z,86.00
2023-02-08T23:25:49.254Z,86.40
2023-02-08T23:28:16.180Z,86.40
2023-02-08T23:30:44.142Z,86.60
2023-02-08T23:33:11.216Z,86.70
2023-02-08T23:35:41.725Z,86.70
2023-02-08T23:38:09.111Z,86.60
2023-02-08T23:40:35.860Z,86.60
2023-02-08T23:43:02.619Z,86.70
2023-02-08T23:45:29.562Z,86.50
2023-02-08T23:47:56.310Z,86.70
2023-02-08T23:50:23.131Z,86.80
2023-02-08T23:52:49.928Z,87.30
2023-02-08T23:55:16.717Z,87.50
2023-02-08T23:57:43.516Z,87.80
